Corydon, Kentucky
Current Conditions -  °F | °C
As of 12:54 PM on Thursday 23 Oct 2014 (Local Time) from KEVV Reporting Station
Clear Clear  
Wind Chill: 59°   Ceiling: Unl
Heat Index: 59°   Visibility: 10mi
Dew Point: 43°   Wind: 5mph
Humidity: 55%   Direction: NA
Pressure: 30.21"   Gusts: NA
Location:  37.74°N, 87.7°W
Report Text: KEVV 231754Z VRB04KT 10SM CLR 15/06 A3021 RMK AO2 SLP229 T01500061 10150 20033 58019 $
Loading
Personal Weather Stations






























Interactive Weather Map
Tropical Storm Tracking
New forecast layout! Learn more

10-Day Weather Forecast

Advertisements
Track Severe Weather on mobile